Other Surface Observations
Issued by NWS

Home | Current Version | Previous Version | Text Only | Print | Product List | Glossary On
Versions: 1 2 3 4 5 6 7 8 9 10 11 12 13 14 15 16 17 18 19 20 21 22 23 24 25 26 27 28 29 30 31 32 33 34 35 36 37 38 39 40 41 42 43 44 45 46 47 48 49 50
000
SXUS51 KWBC 210759
OSONT
:SHEF ENCODED 6-MINUTE NOS MET DATA
:NATIONAL WATER LEVEL OBSERVATION NETWORK (NWLON)
:TA(AIR TEMP DEG F)  SLP(SEA LEVEL PRESSURE INCHES)
:UD(WIND DIRECTION WHOLE DEGREES) US (WIND SPEED MPH)
:TW(WATER TEMP DEG F) UG(WIND GUSTS MPH) WC(CONDUCTIVITY uMHOS/CM)
:-9999 (MISSING VALUES)
:PROVIDED BY DOC/NOAA/NOS/CO-OPS, (301) 713-2540
:corms@noaa.gov
.E FRCB6 20180921 Z DH0718/TAIRG/DIN06/   80/   80/   80/-9999/   80
.E FRCB6 20180921 Z DH0718/PLIRG/DIN06/29.78/29.78/29.78/-9999/29.78
.E FRCB6 20180921 Z DH0718/TWIRG/DIN06/   82/   82/   82/-9999/   82
.E BEPB6 20180921 Z DH0736/TAIRG/DIN06/   80/   80
.E BEPB6 20180921 Z DH0736/PLIRG/DIN06/29.78/29.78
.E BEPB6 20180921 Z DH0736/USIRG/DIN06/   15/   14
.E BEPB6 20180921 Z DH0736/UDIRG/DIN06/   36/   36
.E BEPB6 20180921 Z DH0736/UGIRG/DIN06/   17/   18
.E BEPB6 20180921 Z DH0736/TWIRG/DIN06/   82/   82
.E PSBM1 20180921 Z DH0736/TAIRG/DIN06/   53/   53
.E PSBM1 20180921 Z DH0736/PLIRG/DIN06/30.33/30.33
.E PSBM1 20180921 Z DH0736/USIRG/DIN06/    3/    2
.E PSBM1 20180921 Z DH0736/UDIRG/DIN06/  206/  180
.E PSBM1 20180921 Z DH0736/UGIRG/DIN06/    5/    4
.E PSBM1 20180921 Z DH0736/TWIRG/DIN06/   56/   56
.E CFWM1 20180921 Z DH0742/TAIRG/DIN06/   47/   48
.E CFWM1 20180921 Z DH0742/PLIRG/DIN06/30.29/30.29
.E CFWM1 20180921 Z DH0742/USIRG/DIN06/    1/    0
.E CFWM1 20180921 Z DH0742/UDIRG/DIN06/   44/  350
.E CFWM1 20180921 Z DH0742/UGIRG/DIN06/    4/    2
.E CFWM1 20180921 Z DH0742/TWIRG/DIN06/   56/   56
.E ATGM1 20180921 Z DH0742/TAIRG/DIN06/   52/   52
.E ATGM1 20180921 Z DH0742/PLIRG/DIN06/30.30/30.30
.E ATGM1 20180921 Z DH0742/USIRG/DIN06/    1/    1
.E ATGM1 20180921 Z DH0742/UDIRG/DIN06/  265/  258
.E ATGM1 20180921 Z DH0742/UGIRG/DIN06/    2/    2
.E ATGM1 20180921 Z DH0742/TWIRG/DIN06/   58/   58
.E CASM1 20180921 Z DH0736/TAIRG/DIN06/   61/   60
.E CASM1 20180921 Z DH0736/PLIRG/DIN06/30.29/30.29
.E CASM1 20180921 Z DH0736/TWIRG/DIN06/   62/   62
.E WELM1 20180921 Z DH0742/TAIRG/DIN06/   54/   55
.E WELM1 20180921 Z DH0742/PLIRG/DIN06/30.30/30.30
.E WELM1 20180921 Z DH0742/USIRG/DIN06/    2/    1
.E WELM1 20180921 Z DH0742/UDIRG/DIN06/  347/   15
.E WELM1 20180921 Z DH0742/UGIRG/DIN06/    3/    2
.E WELM1 20180921 Z DH0742/TWIRG/DIN06/   63/   63
.A BHBM3 20180921 Z DH0742/TAIRG    61/UGIRG -9999/PLIRG 30.29/UDIRG -9999/USIRG -9999/TWIRG -9999/WCIRG -9999
.E FRVM3 20180921 Z DH0736/TAIRG/DIN06/   60/   60
.E FRVM3 20180921 Z DH0736/PLIRG/DIN06/30.29/30.29
.E FRVM3 20180921 Z DH0736/WCIRG/DIN06/32530/32310
.E FRVM3 20180921 Z DH0736/TWIRG/DIN06/   71/   71
.A BLTM3 20180921 Z DH0748/TAIRP    61/UGIRP     6/PLIRP 30.29/UDIRP    67/USIRP     4/TWIRP -9999/WCIRP -9999
.E BLTM3 20180921 Z DH0742/TAIRG/DIN06/   61/   61
.E BLTM3 20180921 Z DH0742/PLIRG/DIN06/30.28/30.29
.E BLTM3 20180921 Z DH0742/USIRG/DIN06/    5/    4
.E BLTM3 20180921 Z DH0742/UDIRG/DIN06/   73/   67
.E BLTM3 20180921 Z DH0742/UGIRG/DIN06/    7/    6
.A FRXM3 20180921 Z DH0748/TAIRP    60/UGIRP -9999/PLIRP -9999/UDIRP -9999/USIRP -9999/TWIRP -9999/WCIRG -9999
.E BZBM3 20180921 Z DH0742/TAIRP/DIN06/   60/   60
.E BZBM3 20180921 Z DH0742/PLIRP/DIN06/30.27/30.27
.E BZBM3 20180921 Z DH0742/TWIRP/DIN06/   71/   71
.E BZBM3 20180921 Z DH0736/TAIRG/DIN06/   60/   60
.E BZBM3 20180921 Z DH0736/PLIRG/DIN06/30.27/30.27
.E BZBM3 20180921 Z DH0736/TWIRG/DIN06/   71/   71
.E NTKM3 20180921 Z DH0742/TAIRP/DIN06/   61/   61
.E NTKM3 20180921 Z DH0742/PLIRP/DIN06/30.27/30.27
.E NTKM3 20180921 Z DH0742/USIRP/DIN06/    7/    9
.E NTKM3 20180921 Z DH0742/UDIRP/DIN06/   79/   74
.E NTKM3 20180921 Z DH0742/UGIRP/DIN06/    8/   10
.E NTKM3 20180921 Z DH0742/TWIRP/DIN06/   69/   69
.E NTKM3 20180921 Z DH0736/TAIRG/DIN06/   61/   61
.E NTKM3 20180921 Z DH0736/PLIRG/DIN06/30.27/30.27
.E NTKM3 20180921 Z DH0736/USIRG/DIN06/    7/    7
.E NTKM3 20180921 Z DH0736/UDIRG/DIN06/   81/   80
.E NTKM3 20180921 Z DH0736/UGIRG/DIN06/    9/    8
.E NTKM3 20180921 Z DH0736/TWIRG/DIN06/   69/   69
.E NWPR1 20180921 Z DH0736/TAIRG/DIN06/   60/   60
.E NWPR1 20180921 Z DH0736/PLIRG/DIN06/30.27/30.28
.E NWPR1 20180921 Z DH0736/USIRG/DIN06/    4/    3
.E NWPR1 20180921 Z DH0736/UDIRG/DIN06/   61/   57
.E NWPR1 20180921 Z DH0736/UGIRG/DIN06/    5/    5
.E NWPR1 20180921 Z DH0736/WCIRG/DIN06/43750/43760
.E NWPR1 20180921 Z DH0736/TWIRG/DIN06/   66/   66
.A CPTR1 20180921 Z DH0742/TAIRP    61/UGIRP    10/PLIRP 30.28/UDIRP    86/USIRP     8/TWIRP    71/WCIRP -9999
.E CPTR1 20180921 Z DH0736/TAIRG/DIN06/   61/   61
.E CPTR1 20180921 Z DH0736/PLIRG/DIN06/30.28/30.28
.E CPTR1 20180921 Z DH0736/USIRG/DIN06/    8/    8
.E CPTR1 20180921 Z DH0736/UDIRG/DIN06/   73/   81
.E CPTR1 20180921 Z DH0736/UGIRG/DIN06/   10/   10
.E CPTR1 20180921 Z DH0736/TWIRG/DIN06/   71/   71
.E PTCR1 20180921 Z DH0736/TAIRG/DIN06/   62/   62
.E PTCR1 20180921 Z DH0736/PLIRG/DIN06/30.28/30.28
.E PTCR1 20180921 Z DH0736/USIRG/DIN06/    7/    5
.E PTCR1 20180921 Z DH0736/UDIRG/DIN06/  104/  107
.E PTCR1 20180921 Z DH0736/UGIRG/DIN06/   11/    9
.E PVDR1 20180921 Z DH0724/TAIRG/DIN06/   60/   60/-9999/   59
.E PVDR1 20180921 Z DH0724/PLIRG/DIN06/30.28/30.28/-9999/30.29
.E PVDR1 20180921 Z DH0724/USIRG/DIN06/    5/    4/-9999/    4
.E PVDR1 20180921 Z DH0724/UDIRG/DIN06/   85/   91/-9999/   86
.E PVDR1 20180921 Z DH0724/UGIRG/DIN06/    6/    6/-9999/    5
.E FOXR1 20180921 Z DH0736/TAIRG/DIN06/   60/   60
.E FOXR1 20180921 Z DH0736/PLIRG/DIN06/30.27/30.27
.E FOXR1 20180921 Z DH0736/USIRG/DIN06/    1/    1
.E FOXR1 20180921 Z DH0736/UDIRG/DIN06/  176/  145
.E FOXR1 20180921 Z DH0736/UGIRG/DIN06/    5/    3
.E FOXR1 20180921 Z DH0736/TWIRG/DIN06/   69/   69
.E QPTR1 20180921 Z DH0718/TAIRG/DIN06/   62/   62/   62/   62/   62
.E QPTR1 20180921 Z DH0718/PLIRG/DIN06/30.28/30.28/30.28/30.28/30.28
.E QPTR1 20180921 Z DH0718/USIRG/DIN06/   10/   10/   11/   10/    9
.E QPTR1 20180921 Z DH0718/UDIRG/DIN06/   75/   77/   95/   86/   94
.E QPTR1 20180921 Z DH0718/UGIRG/DIN06/   12/   11/   13/   12/   12
.E QPTR1 20180921 Z DH0718/WCIRG/DIN06/32950/32890/32880/32890/32860
.E QPTR1 20180921 Z DH0718/TWIRG/DIN06/   71/   71/   71/   71/   71
.A NLNC3 20180921 Z DH0742/TAIRG    62/UGIRG     4/PLIRG 30.26/UDIRG    71/USIRG     3/TWIRG    71/WCIRG -9999
.E NWHC3 20180921 Z DH0748/TAIRP/DIN06/   66/   67
.E NWHC3 20180921 Z DH0748/PLIRP/DIN06/30.25/30.25
.E NWHC3 20180921 Z DH0748/USIRP/DIN06/    9/   11
.E NWHC3 20180921 Z DH0748/UDIRP/DIN06/  179/  180
.E NWHC3 20180921 Z DH0748/UGIRP/DIN06/   15/   15
.E NWHC3 20180921 Z DH0748/TWIRP/DIN06/   77/   77
.E NWHC3 20180921 Z DH0742/TAIRG/DIN06/   66/   66
.E NWHC3 20180921 Z DH0742/PLIRG/DIN06/30.25/30.25
.E NWHC3 20180921 Z DH0742/USIRG/DIN06/   11/    9
.E NWHC3 20180921 Z DH0742/UDIRG/DIN06/  171/  179
.E NWHC3 20180921 Z DH0742/UGIRG/DIN06/   14/   15
.E NWHC3 20180921 Z DH0742/TWIRG/DIN06/   77/   77
.E BRHC3 20180921 Z DH0736/TAIRG/DIN06/   66/   66
.E BRHC3 20180921 Z DH0736/PLIRG/DIN06/30.24/30.23
.E BRHC3 20180921 Z DH0736/USIRG/DIN06/   11/   11
.E BRHC3 20180921 Z DH0736/UDIRG/DIN06/  167/  170
.E BRHC3 20180921 Z DH0736/UGIRG/DIN06/   15/   16
.E BRHC3 20180921 Z DH0736/TWIRG/DIN06/   74/   74
.A MTKN6 20180921 Z DH0748/TAIRP    64/UGIRP -9999/PLIRP 30.27/UDIRP -9999/USIRP -9999/TWIRP    70/WCIRP -9999
.A MTKN6 20180921 Z DH0742/TAIRG    64/UGIRG -9999/PLIRG 30.27/UDIRG -9999/USIRG -9999/TWIRG    70/WCIRG -9999
.A KPTN6 20180921 Z DH0748/TAIRP -9999/UGIRP -9999/PLIRP -9999/UDIRP -9999/USIRP -9999/TWIRP    74/WCIRG -9999
.E KPTN6 20180921 Z DH0736/PLIRG/DIN06/30.27/30.27
.E KPTN6 20180921 Z DH0736/TWIRG/DIN06/   73/   74
.A BATN6 20180921 Z DH0748/TAIRP    68/UGIRP -9999/PLIRP 30.26/UDIRP -9999/USIRP -9999/TWIRP    75/WCIRP -9999
.E BATN6 20180921 Z DH0742/TAIRG/DIN06/   69/   69
.E BATN6 20180921 Z DH0742/PLIRG/DIN06/30.26/30.26
.E BATN6 20180921 Z DH0742/TWIRG/DIN06/   74/   74
.E TKPN6 20180921 Z DH0736/TAIRG/DIN06/   65/   65
.E TKPN6 20180921 Z DH0736/PLIRG/DIN06/30.22/30.22
.E TKPN6 20180921 Z DH0736/USIRG/DIN06/    6/    6
.E TKPN6 20180921 Z DH0736/UDIRG/DIN06/  202/  186
.E TKPN6 20180921 Z DH0736/UGIRG/DIN06/    9/    9
.E TKPN6 20180921 Z DH0736/TWIRG/DIN06/   73/   73
.A BGNN6 20180921 Z DH0748/TAIRP    68/UGIRP -9999/PLIRP 30.23/UDIRP -9999/USIRP -9999/TWIRP    74/WCIRP -9999
.E BGNN6 20180921 Z DH0736/TAIRG/DIN06/   68/   68
.E BGNN6 20180921 Z DH0736/PLIRG/DIN06/30.23/30.23
.E BGNN6 20180921 Z DH0736/TWIRG/DIN06/   74/   74
.A MHRN6 20180921 Z DH0748/TAIRP -9999/UGIRP     6/PLIRP -9999/UDIRP   199/USIRP     4/TWIRP -9999/WCIRG -9999
.E MHRN6 20180921 Z DH0742/USIRG/DIN06/    5/    4
.E MHRN6 20180921 Z DH0742/UDIRG/DIN06/  199/  199
.E MHRN6 20180921 Z DH0742/UGIRG/DIN06/    6/    6
.E ROBN4 20180921 Z DH0742/TAIRG/DIN06/   69/   69
.E ROBN4 20180921 Z DH0742/PLIRG/DIN06/30.25/30.25
.E ROBN4 20180921 Z DH0742/USIRG/DIN06/   15/   14
.E ROBN4 20180921 Z DH0742/UDIRG/DIN06/  157/  160
.E ROBN4 20180921 Z DH0742/UGIRG/DIN06/   17/   16
.A SDHN4 20180921 Z DH0748/TAIRP    68/UGIRP    11/PLIRP 30.27/UDIRP   153/USIRP     8/TWIRP    74/WCIRP -9999
.E SDHN4 20180921 Z DH0736/TAIRG/DIN06/   68/   68
.E SDHN4 20180921 Z DH0736/PLIRG/DIN06/30.27/30.28
.E SDHN4 20180921 Z DH0736/USIRG/DIN06/    7/    7
.E SDHN4 20180921 Z DH0736/UDIRG/DIN06/  156/  156
.E SDHN4 20180921 Z DH0736/UGIRG/DIN06/    9/   10
.E SDHN4 20180921 Z DH0736/TWIRG/DIN06/   74/   74
.A ACYN4 20180921 Z DH0742/TAIRG    69/UGIRG -9999/PLIRG 30.24/UDIRG -9999/USIRG -9999/TWIRG    73/WCIRG -9999
.E CMAN4 20180921 Z DH0748/TWIRP/DIN06/   75/   75
.E CMAN4 20180921 Z DH0742/TAIRG/DIN06/   69/   68
.E CMAN4 20180921 Z DH0742/PLIRG/DIN06/30.21/30.21
.E CMAN4 20180921 Z DH0742/USIRG/DIN06/    5/    4
.E CMAN4 20180921 Z DH0742/UDIRG/DIN06/  128/  128
.E CMAN4 20180921 Z DH0742/UGIRG/DIN06/    5/    5
.E CMAN4 20180921 Z DH0742/WCIRG/DIN06/44350/44410
.E CMAN4 20180921 Z DH0742/TWIRG/DIN06/   75/   75
.A SJSN4 20180921 Z DH0748/TAIRP    71/UGIRP    17/PLIRP 30.21/UDIRP   158/USIRP    15/TWIRP    76/WCIRP -9999
.A BDRN4 20180921 Z DH0748/TAIRP -9999/UGIRP     1/PLIRP -9999/UDIRP   290/USIRP     0/TWIRP -9999/WCIRG -9999
.E BDRN4 20180921 Z DH0736/TAIRG/DIN06/   65/   65
.E BDRN4 20180921 Z DH0736/PLIRG/DIN06/30.22/30.22
.E BDRN4 20180921 Z DH0736/USIRG/DIN06/-9999/    0
.E BDRN4 20180921 Z DH0736/UDIRG/DIN06/-9999/  302
.E BDRN4 20180921 Z DH0736/UGIRG/DIN06/-9999/    1
.E BDRN4 20180921 Z DH0736/TWIRG/DIN06/   71/   71
.A MRCP1 20180921 Z DH0742/TAIRP    67/UGIRP -9999/PLIRP 30.22/UDIRP -9999/USIRP -9999/TWIRP    72/WCIRP -9999
.E MRCP1 20180921 Z DH0736/TAIRG/DIN06/   67/   67
.E MRCP1 20180921 Z DH0736/PLIRG/DIN06/30.22/30.22
.E MRCP1 20180921 Z DH0736/TWIRG/DIN06/   72/   72
.E PHBP1 20180921 Z DH0736/TAIRG/DIN06/   67/   67
.E PHBP1 20180921 Z DH0736/PLIRG/DIN06/30.20/30.21
.E PHBP1 20180921 Z DH0736/TWIRG/DIN06/   71/   71
.A BDSP1 20180921 Z DH0742/TAIRP    67/UGIRP -9999/PLIRP 30.23/UDIRP -9999/USIRP -9999/TWIRP    72/WCIRP -9999
.A BDSP1 20180921 Z DH0742/TAIRG    67/UGIRG -9999/PLIRG 30.23/UDIRG -9999/USIRG -9999/TWIRG    72/WCIRG -9999
.E NBLP1 20180921 Z DH0748/TAIRP/DIN06/   65/   65
.E NBLP1 20180921 Z DH0748/PLIRP/DIN06/30.24/30.24
.E NBLP1 20180921 Z DH0748/USIRP/DIN06/    3/    2
.E NBLP1 20180921 Z DH0748/UDIRP/DIN06/  179/  215
.E NBLP1 20180921 Z DH0748/UGIRP/DIN06/    3/    3
.E NBLP1 20180921 Z DH0748/TWIRP/DIN06/   70/   70
.E NBLP1 20180921 Z DH0742/TAIRG/DIN06/   65/   65
.E NBLP1 20180921 Z DH0742/PLIRG/DIN06/30.24/30.24
.E NBLP1 20180921 Z DH0742/USIRG/DIN06/    3/    3
.E NBLP1 20180921 Z DH0742/UDIRG/DIN06/  170/  179
.E NBLP1 20180921 Z DH0742/UGIRG/DIN06/    3/    3
.E NBLP1 20180921 Z DH0742/TWIRG/DIN06/   70/   70
.E DELD1 20180921 Z DH0748/TAIRP/DIN06/   68/   68
.E DELD1 20180921 Z DH0748/PLIRP/DIN06/30.22/30.22
.E DELD1 20180921 Z DH0748/USIRP/DIN06/    3/    4
.E DELD1 20180921 Z DH0748/UDIRP/DIN06/  156/  159
.E DELD1 20180921 Z DH0748/UGIRP/DIN06/    5/    6
.E DELD1 20180921 Z DH0748/TWIRP/DIN06/   69/   69
.E DELD1 20180921 Z DH0742/TAIRG/DIN06/   68/   68
.E DELD1 20180921 Z DH0742/PLIRG/DIN06/30.22/30.22
.E DELD1 20180921 Z DH0742/USIRG/DIN06/    3/    3
.E DELD1 20180921 Z DH0742/UDIRG/DIN06/  185/  156
.E DELD1 20180921 Z DH0742/UGIRG/DIN06/    5/    5
.E DELD1 20180921 Z DH0742/TWIRG/DIN06/   69/   69
.A BRND1 20180921 Z DH0742/TAIRP    71/UGIRP    19/PLIRP 30.22/UDIRP   148/USIRP    15/TWIRP -9999/WCIRP -9999
.E BRND1 20180921 Z DH0736/TAIRG/DIN06/   71/   71
.E BRND1 20180921 Z DH0736/PLIRG/DIN06/30.23/30.23
.E BRND1 20180921 Z DH0736/USIRG/DIN06/   16/   15
.E BRND1 20180921 Z DH0736/UDIRG/DIN06/  142/  145
.E BRND1 20180921 Z DH0736/UGIRG/DIN06/   18/   16
.E LWSD1 20180921 Z DH0736/TAIRG/DIN06/   69/   69
.E LWSD1 20180921 Z DH0736/PLIRG/DIN06/30.22/30.22
.E LWSD1 20180921 Z DH0736/USIRG/DIN06/    4/    5
.E LWSD1 20180921 Z DH0736/UDIRG/DIN06/  148/  136
.E LWSD1 20180921 Z DH0736/UGIRG/DIN06/    6/    7
.E LWSD1 20180921 Z DH0736/WCIRG/DIN06/42540/42520
.E LWSD1 20180921 Z DH0736/TWIRG/DIN06/   76/   76
.E OCIM2 20180921 Z DH0736/TAIRG/DIN06/   70/   70
.E OCIM2 20180921 Z DH0736/PLIRG/DIN06/30.24/30.24
.E OCIM2 20180921 Z DH0736/USIRG/DIN06/    4/    5
.E OCIM2 20180921 Z DH0736/UDIRG/DIN06/  111/  112
.E OCIM2 20180921 Z DH0736/UGIRG/DIN06/    7/    7
.E OCIM2 20180921 Z DH0736/TWIRG/DIN06/   75/   75
.A BISM2 20180921 Z DH0748/TAIRP    71/UGIRP     9/PLIRP 30.23/UDIRP   140/USIRP     7/TWIRP    79/WCIRP -9999
.E BISM2 20180921 Z DH0742/TAIRG/DIN06/   71/   71
.E BISM2 20180921 Z DH0742/PLIRG/DIN06/30.23/30.23
.E BISM2 20180921 Z DH0742/USIRG/DIN06/    7/    7
.E BISM2 20180921 Z DH0742/UDIRG/DIN06/  134/  140
.E BISM2 20180921 Z DH0742/UGIRG/DIN06/    8/    9
.E BISM2 20180921 Z DH0742/TWIRG/DIN06/   79/   79
.A CAMM2 20180921 Z DH0748/TAIRP    67/UGIRP -9999/PLIRP 30.25/UDIRP -9999/USIRP -9999/TWIRP    78/WCIRP -9999
.E CAMM2 20180921 Z DH0736/TAIRG/DIN06/   67/   67
.E CAMM2 20180921 Z DH0736/PLIRG/DIN06/30.24/30.25
.E CAMM2 20180921 Z DH0736/TWIRG/DIN06/   78/   78
.A TCBM2 20180921 Z DH0748/TAIRP    67/UGIRP     7/PLIRP 30.22/UDIRP   146/USIRP     5/TWIRP    74/WCIRP -9999
.E TCBM2 20180921 Z DH0742/TAIRG/DIN06/   67/   67
.E TCBM2 20180921 Z DH0742/PLIRG/DIN06/30.22/30.22
.E TCBM2 20180921 Z DH0742/USIRG/DIN06/    3/    5
.E TCBM2 20180921 Z DH0742/UDIRG/DIN06/  137/  146
.E TCBM2 20180921 Z DH0742/UGIRG/DIN06/    6/    7
.E TCBM2 20180921 Z DH0742/TWIRG/DIN06/   74/   74
.A CHCM2 20180921 Z DH0742/TAIRP    67/UGIRP     3/PLIRP 30.22/UDIRP   184/USIRP     2/TWIRP    76/WCIRP -9999
.E CHCM2 20180921 Z DH0736/TAIRG/DIN06/   68/   67
.E CHCM2 20180921 Z DH0736/PLIRG/DIN06/30.23/30.22
.E CHCM2 20180921 Z DH0736/USIRG/DIN06/    1/    2
.E CHCM2 20180921 Z DH0736/UDIRG/DIN06/  151/  184
.E CHCM2 20180921 Z DH0736/UGIRG/DIN06/    1/    3
.E CHCM2 20180921 Z DH0736/WCIRG/DIN06/ 1530/ 1530
.E CHCM2 20180921 Z DH0736/TWIRG/DIN06/   76/   76
.E BLTM2 20180921 Z DH0748/TAIRP/DIN06/   70/-9999
.E BLTM2 20180921 Z DH0748/PLIRP/DIN06/30.20/-9999
.E BLTM2 20180921 Z DH0748/USIRP/DIN06/    5/-9999
.E BLTM2 20180921 Z DH0748/UDIRP/DIN06/  189/-9999
.E BLTM2 20180921 Z DH0748/UGIRP/DIN06/    9/-9999
.E BLTM2 20180921 Z DH0748/TWIRP/DIN06/   78/   78
.E BLTM2 20180921 Z DH0736/TAIRG/DIN06/   71/   71
.E BLTM2 20180921 Z DH0736/PLIRG/DIN06/30.20/30.20
.E BLTM2 20180921 Z DH0736/USIRG/DIN06/    4/    5
.E BLTM2 20180921 Z DH0736/UDIRG/DIN06/  189/  189
.E BLTM2 20180921 Z DH0736/UGIRG/DIN06/    9/    9
.E BLTM2 20180921 Z DH0736/WCIRG/DIN06/  170/  120
.E BLTM2 20180921 Z DH0736/TWIRG/DIN06/   78/   78
.E FSKM2 20180921 Z DH0748/TAIRP/DIN06/   70/   70
.E FSKM2 20180921 Z DH0748/PLIRP/DIN06/30.21/30.20
.E FSKM2 20180921 Z DH0748/USIRP/DIN06/   11/   12
.E FSKM2 20180921 Z DH0748/UDIRP/DIN06/  148/  144
.E FSKM2 20180921 Z DH0748/UGIRP/DIN06/   14/   14
.E FSKM2 20180921 Z DH0742/TAIRG/DIN06/   70/   70
.E FSKM2 20180921 Z DH0742/PLIRG/DIN06/30.20/30.21
.E FSKM2 20180921 Z DH0742/USIRG/DIN06/   11/   11
.E FSKM2 20180921 Z DH0742/UDIRG/DIN06/  144/  148
.E FSKM2 20180921 Z DH0742/UGIRG/DIN06/   13/   14
.E FSNM2 20180921 Z DH0742/TAIRP/DIN06/   70/   70
.E FSNM2 20180921 Z DH0742/PLIRP/DIN06/30.21/30.20
.E FSNM2 20180921 Z DH0742/USIRP/DIN06/   11/   11
.E FSNM2 20180921 Z DH0742/UDIRP/DIN06/  158/  159
.E FSNM2 20180921 Z DH0742/UGIRP/DIN06/   14/   14
.A CPVM2 20180921 Z DH0748/TAIRP    71/UGIRP -9999/PLIRP -9999/UDIRP -9999/USIRP -9999/TWIRP -9999/WCIRG -9999
.A CPVM2 20180921 Z DH0742/TAIRG    71/UGIRG -9999/PLIRG -9999/UDIRG -9999/USIRG -9999/TWIRG -9999/WCIRG -9999
.E APAM2 20180921 Z DH0748/TAIRP/DIN06/   71/   71
.E APAM2 20180921 Z DH0748/PLIRP/DIN06/30.19/30.20
.A APAM2 20180921 Z DH0742/TAIRG    71/UGIRG -9999/PLIRG 30.19/UDIRG -9999/USIRG -9999/TWIRG -9999/WCIRG -9999
.E COVM2 20180921 Z DH0742/TAIRG/DIN06/   72/   72
.E COVM2 20180921 Z DH0742/PLIRG/DIN06/30.23/30.23
.E COVM2 20180921 Z DH0742/USIRG/DIN06/   13/    8
.E COVM2 20180921 Z DH0742/UDIRG/DIN06/  190/  204
.E COVM2 20180921 Z DH0742/UGIRG/DIN06/   16/   15
.E SLIM2 20180921 Z DH0742/TAIRP/DIN06/   71/   71
.E SLIM2 20180921 Z DH0742/PLIRP/DIN06/30.20/30.20
.E SLIM2 20180921 Z DH0742/USIRP/DIN06/    9/   10
.E SLIM2 20180921 Z DH0742/UDIRP/DIN06/  154/  148
.E SLIM2 20180921 Z DH0742/UGIRP/DIN06/   11/   11
.E SLIM2 20180921 Z DH0742/TWIRP/DIN06/   78/   78
.E SLIM2 20180921 Z DH0736/TAIRG/DIN06/   71/   72
.E SLIM2 20180921 Z DH0736/PLIRG/DIN06/30.21/30.20
.E SLIM2 20180921 Z DH0736/USIRG/DIN06/    9/    8
.E SLIM2 20180921 Z DH0736/UDIRG/DIN06/  166/  160
.E SLIM2 20180921 Z DH0736/UGIRG/DIN06/   11/   10
.E SLIM2 20180921 Z DH0736/TWIRG/DIN06/   78/   78
.E PPTM2 20180921 Z DH0736/USIRP/DIN06/   11/   11
.E PPTM2 20180921 Z DH0736/UDIRP/DIN06/  185/  189
.E PPTM2 20180921 Z DH0736/UGIRP/DIN06/   13/   13
.E WASD2 20180921 Z DH0736/TAIRG/DIN06/   71/   71
.E WASD2 20180921 Z DH0736/PLIRG/DIN06/30.21/30.21
.E WASD2 20180921 Z DH0736/USIRG/DIN06/    5/    6
.E WASD2 20180921 Z DH0736/UDIRG/DIN06/  153/  167
.E WASD2 20180921 Z DH0736/UGIRG/DIN06/   11/    6
.E WASD2 20180921 Z DH0736/TWIRG/DIN06/   74/   74
.E WAHV2 20180921 Z DH0742/TAIRG/DIN06/   71/   71
.E WAHV2 20180921 Z DH0742/PLIRG/DIN06/30.20/30.20
.E WAHV2 20180921 Z DH0742/USIRG/DIN06/    3/    2
.E WAHV2 20180921 Z DH0742/UDIRG/DIN06/  130/  129
.E WAHV2 20180921 Z DH0742/UGIRG/DIN06/    5/    5
.E WAHV2 20180921 Z DH0742/TWIRG/DIN06/   77/   77
.E KPTV2 20180921 Z DH0736/USIRG/DIN06/    4/    4
.E KPTV2 20180921 Z DH0736/UDIRG/DIN06/   84/   77
.E KPTV2 20180921 Z DH0736/UGIRG/DIN06/    4/    4
.E KPTV2 20180921 Z DH0736/TWIRG/DIN06/   78/   78
.E RPLV2 20180921 Z DH0742/PLIRG/DIN06/30.22/30.22
.E RPLV2 20180921 Z DH0742/USIRG/DIN06/    7/    6
.E RPLV2 20180921 Z DH0742/UDIRG/DIN06/   98/  106
.E RPLV2 20180921 Z DH0742/UGIRG/DIN06/    8/    9
.A NCDV2 20180921 Z DH0748/TAIRP    71/UGIRP     8/PLIRP 30.18/UDIRP   142/USIRP     6/TWIRP    78/WCIRP -9999
.E NCDV2 20180921 Z DH0736/TAIRG/DIN06/   71/   71
.E NCDV2 20180921 Z DH0736/PLIRG/DIN06/30.18/30.18
.E NCDV2 20180921 Z DH0736/USIRG/DIN06/    7/    6
.E NCDV2 20180921 Z DH0736/UDIRG/DIN06/  144/  154
.E NCDV2 20180921 Z DH0736/UGIRG/DIN06/    8/   10
.E NCDV2 20180921 Z DH0736/TWIRG/DIN06/   78/   78
.E LWTV2 20180921 Z DH0736/TAIRG/DIN06/   70/   70
.E LWTV2 20180921 Z DH0736/PLIRG/DIN06/30.21/30.21
.E LWTV2 20180921 Z DH0736/USIRG/DIN06/    2/    4
.E LWTV2 20180921 Z DH0736/UDIRG/DIN06/  254/  222
.E LWTV2 20180921 Z DH0736/UGIRG/DIN06/    4/    6
.E LWTV2 20180921 Z DH0736/WCIRG/DIN06/ 8470/ 8480
.E LWTV2 20180921 Z DH0736/TWIRG/DIN06/   78/   78
.E YKRV2 20180921 Z DH0748/TAIRP/DIN06/   73/   74
.E YKRV2 20180921 Z DH0748/PLIRP/DIN06/30.21/30.22
.E YKRV2 20180921 Z DH0748/USIRP/DIN06/    8/    8
.E YKRV2 20180921 Z DH0748/UDIRP/DIN06/  136/  141
.E YKRV2 20180921 Z DH0748/UGIRP/DIN06/   10/    9
.E YKRV2 20180921 Z DH0742/TAIRG/DIN06/   73/   73
.E YKRV2 20180921 Z DH0742/PLIRG/DIN06/30.21/30.21
.E YKRV2 20180921 Z DH0742/USIRG/DIN06/    8/    8
.E YKRV2 20180921 Z DH0742/UDIRG/DIN06/  142/  136
.E YKRV2 20180921 Z DH0742/UGIRG/DIN06/   10/   10
.A YKTV2 20180921 Z DH0742/TAIRG    70/UGIRG     4/PLIRG 30.19/UDIRG   204/USIRG     3/TWIRG    80/WCIRG 19400
.E DOMV2 20180921 Z DH0736/TAIRG/DIN06/   73/   73
.E DOMV2 20180921 Z DH0736/PLIRG/DIN06/30.20/30.20
.E DOMV2 20180921 Z DH0736/USIRG/DIN06/    7/    8
.E DOMV2 20180921 Z DH0736/UDIRG/DIN06/  114/  115
.E DOMV2 20180921 Z DH0736/UGIRG/DIN06/    9/   10
.E SWPV2 20180921 Z DH0736/PLIRG/DIN06/30.19/30.19
.E SWPV2 20180921 Z DH0736/TWIRG/DIN06/   79/   79
.E WDSV2 20180921 Z DH0736/TAIRG/DIN06/   72/   72
.E WDSV2 20180921 Z DH0736/PLIRG/DIN06/30.18/30.18
.E WDSV2 20180921 Z DH0736/USIRG/DIN06/    1/    2
.E WDSV2 20180921 Z DH0736/UDIRG/DIN06/   75/   85
.E WDSV2 20180921 Z DH0736/UGIRG/DIN06/    5/    3
.E CHBV2 20180921 Z DH0736/TAIRG/DIN06/   73/   73
.E CHBV2 20180921 Z DH0736/PLIRG/DIN06/30.16/30.16
.E CHBV2 20180921 Z DH0736/USIRG/DIN06/    8/    6
.E CHBV2 20180921 Z DH0736/UDIRG/DIN06/  108/  123
.E CHBV2 20180921 Z DH0736/UGIRG/DIN06/   10/   10
.A CHYV2 20180921 Z DH0748/TAIRP    73/UGIRP    11/PLIRP 30.14/UDIRP    84/USIRP     9/TWIRP -9999/WCIRP -9999
.A CHYV2 20180921 Z DH0742/TAIRG    73/UGIRG    11/PLIRG 30.15/UDIRG    91/USIRG     9/TWIRG -9999/WCIRG -9999
.A MNPV2 20180921 Z DH0748/TAIRP    69/UGIRP     1/PLIRP 30.19/UDIRP   329/USIRP     1/TWIRP    81/WCIRP -9999
.E MNPV2 20180921 Z DH0736/TAIRG/DIN06/   69/   69
.E MNPV2 20180921 Z DH0736/PLIRG/DIN06/30.19/30.19
.E MNPV2 20180921 Z DH0736/USIRG/DIN06/    2/    1
.E MNPV2 20180921 Z DH0736/UDIRG/DIN06/  318/  342
.E MNPV2 20180921 Z DH0736/UGIRG/DIN06/    3/    2
.E MNPV2 20180921 Z DH0736/WCIRG/DIN06/24310/24250
.E MNPV2 20180921 Z DH0736/TWIRG/DIN06/   81/   81
.E DUKN7 20180921 Z DH0742/TAIRG/DIN06/   74/   74
.E DUKN7 20180921 Z DH0742/PLIRG/DIN06/30.17/30.17
.E DUKN7 20180921 Z DH0742/USIRG/DIN06/   11/   10
.E DUKN7 20180921 Z DH0742/UDIRG/DIN06/   39/   46
.E DUKN7 20180921 Z DH0742/UGIRG/DIN06/   12/   12
.E DUKN7 20180921 Z DH0742/TWIRG/DIN06/   78/   79
.E ORIN7 20180921 Z DH0736/TAIRG/DIN06/   73/   73
.E ORIN7 20180921 Z DH0736/PLIRG/DIN06/30.16/30.16
.E ORIN7 20180921 Z DH0736/USIRG/DIN06/    8/   10
.E ORIN7 20180921 Z DH0736/UDIRG/DIN06/   24/   21
.E ORIN7 20180921 Z DH0736/UGIRG/DIN06/   10/   13
.E ORIN7 20180921 Z DH0736/TWIRG/DIN06/   78/   78
.A HCGN7 20180921 Z DH0748/TAIRP    75/UGIRP    11/PLIRP 30.15/UDIRP    43/USIRP     8/TWIRP    80/WCIRP -9999
.E HCGN7 20180921 Z DH0736/TAIRG/DIN06/   75/   75
.E HCGN7 20180921 Z DH0736/PLIRG/DIN06/30.15/30.15
.E HCGN7 20180921 Z DH0736/USIRG/DIN06/    8/    7
.E HCGN7 20180921 Z DH0736/UDIRG/DIN06/   43/   44
.E HCGN7 20180921 Z DH0736/UGIRG/DIN06/   11/   11
.E HCGN7 20180921 Z DH0736/TWIRG/DIN06/   80/   80
.E BFTN7 20180921 Z DH0736/TAIRG/DIN06/   71/   71
.E BFTN7 20180921 Z DH0736/PLIRG/DIN06/30.17/30.17
.E BFTN7 20180921 Z DH0736/USIRG/DIN06/    5/    5
.E BFTN7 20180921 Z DH0736/UDIRG/DIN06/   24/   25
.E BFTN7 20180921 Z DH0736/UGIRG/DIN06/    6/    6
.E BFTN7 20180921 Z DH0736/TWIRG/DIN06/   80/   80
.A WLON7 20180921 Z DH0742/TAIRG    72/UGIRG -9999/PLIRG 30.16/UDIRG -9999/USIRG -9999/TWIRG    78/WCIRG -9999
.A JMPN7 20180921 Z DH0748/TAIRP    78/UGIRP    13/PLIRP 30.17/UDIRP    74/USIRP    10/TWIRP    83/WCIRP -9999
.A MROS1 20180921 Z DH0742/TAIRG    79/UGIRG -9999/PLIRG 30.25/UDIRG -9999/USIRG -9999/TWIRG -9999/WCIRG -9999
.A CHTS1 20180921 Z DH0742/TAIRG    81/UGIRG    13/PLIRG 30.13/UDIRG    92/USIRG    11/TWIRG    83/WCIRG -9999
.E FPKG1 20180921 Z DH0736/TAIRG/DIN06/   81/   81
.E FPKG1 20180921 Z DH0736/PLIRG/DIN06/30.12/30.12
.E FPKG1 20180921 Z DH0736/USIRG/DIN06/    5/    7
.E FPKG1 20180921 Z DH0736/UDIRG/DIN06/  136/  131
.E FPKG1 20180921 Z DH0736/UGIRG/DIN06/    6/   10
.E FPKG1 20180921 Z DH0736/TWIRG/DIN06/   83/   83
.A FRDF1 20180921 Z DH0742/TAIRP    83/UGIRP -9999/PLIRP 30.10/UDIRP -9999/USIRP -9999/TWIRP    86/WCIRP -9999
.A FRDF1 20180921 Z DH0742/TAIRG    83/UGIRG -9999/PLIRG 30.10/UDIRG -9999/USIRG -9999/TWIRG    86/WCIRG -9999
.A MYPF1 20180921 Z DH0748/TAIRP    82/UGIRP    13/PLIRP 30.08/UDIRP   122/USIRP     6/TWIRP    85/WCIRP -9999
.A MYPF1 20180921 Z DH0742/TAIRG    82/UGIRG    13/PLIRG 30.08/UDIRG   127/USIRG     9/TWIRG    85/WCIRG 20730
.E DMSF1 20180921 Z DH0742/WCIRG/DIN06/11280/11510
.E DMSF1 20180921 Z DH0742/TWIRG/DIN06/   85/   85
.E LTJF1 20180921 Z DH0742/TAIRP/DIN06/   82/   82
.E BLIF1 20180921 Z DH0742/TAIRG/DIN06/   81/   81
.E BLIF1 20180921 Z DH0742/PLIRG/DIN06/30.10/30.10
.E BLIF1 20180921 Z DH0742/USIRG/DIN06/    4/    4
.E BLIF1 20180921 Z DH0742/UDIRG/DIN06/  140/  139
.E BLIF1 20180921 Z DH0742/UGIRG/DIN06/    6/    5
.A RCYF1 20180921 Z DH0748/TAIRP -9999/UGIRP -9999/PLIRP -9999/UDIRP -9999/USIRP -9999/TWIRP    87/WCIRG -9999
.E RCYF1 20180921 Z DH0742/WCIRG/DIN06/  580/  570
.E RCYF1 20180921 Z DH0742/TWIRG/DIN06/   87/   87
.A TRDF1 20180921 Z DH0742/TAIRG    80/UGIRG    19/PLIRG 30.09/UDIRG    66/USIRG    13/TWIRG    86/WCIRG -9999
.A LKWF1 20180921 Z DH0748/TAIRP    83/UGIRP     9/PLIRP 30.05/UDIRP   129/USIRP     6/TWIRP    86/WCIRP -9999
.A LKWF1 20180921 Z DH0742/TAIRG    83/UGIRG     9/PLIRG 30.05/UDIRG   135/USIRG     7/TWIRG    86/WCIRG -9999
.E PEGF1 20180921 Z DH0736/TAIRG/DIN06/   84/   84
.E PEGF1 20180921 Z DH0736/PLIRG/DIN06/30.01/30.01
.E PEGF1 20180921 Z DH0736/USIRG/DIN06/   11/   10
.E PEGF1 20180921 Z DH0736/UDIRG/DIN06/   80/   83
.E PEGF1 20180921 Z DH0736/UGIRG/DIN06/   13/   12
.A VAKF1 20180921 Z DH0748/TAIRP    80/UGIRP     9/PLIRP 30.00/UDIRP   147/USIRP     5/TWIRP    89/WCIRP -9999
.E VAKF1 20180921 Z DH0736/TAIRG/DIN06/   79/   80
.E VAKF1 20180921 Z DH0736/PLIRG/DIN06/30.00/30.00
.E VAKF1 20180921 Z DH0736/USIRG/DIN06/    7/    8
.E VAKF1 20180921 Z DH0736/UDIRG/DIN06/  147/  151
.E VAKF1 20180921 Z DH0736/UGIRG/DIN06/   12/   11
.E VAKF1 20180921 Z DH0736/TWIRG/DIN06/   89/   89
.E VCAF1 20180921 Z DH0742/TAIRG/DIN06/   84/   84
.E VCAF1 20180921 Z DH0742/PLIRG/DIN06/29.98/29.98
.E VCAF1 20180921 Z DH0742/USIRG/DIN06/    5/    4
.E VCAF1 20180921 Z DH0742/UDIRG/DIN06/   77/   93
.E VCAF1 20180921 Z DH0742/UGIRG/DIN06/    7/    7
.E VCAF1 20180921 Z DH0742/TWIRG/DIN06/   89/   89
.E KYWF1 20180921 Z DH0742/USIRG/DIN06/    5/    3
.E KYWF1 20180921 Z DH0742/UDIRG/DIN06/   52/   58
.E KYWF1 20180921 Z DH0742/UGIRG/DIN06/    6/    6
.E BARA9 20180921 Z DH0736/TAIRG/DIN06/   78/   78
.E BARA9 20180921 Z DH0736/PLIRG/DIN06/29.91/29.91
.E BARA9 20180921 Z DH0736/TWIRG/DIN06/   84/   84



USA.gov is the U.S. government's official web portal to all federal, state and local government web resources and services.